createdAt,value
2018-08-25T00:02:16.368Z,7.17
2018-08-25T00:04:44.980Z,5.33
2018-08-25T00:07:13.736Z,6.00
2018-08-25T00:09:42.525Z,6.87
2018-08-25T00:12:11.238Z,12.00
2018-08-25T00:14:39.798Z,14.97
2018-08-25T00:17:08.367Z,6.00
2018-08-25T00:19:36.990Z,10.73
2018-08-25T00:22:05.562Z,4.40
2018-08-25T00:24:34.346Z,8.10
2018-08-25T00:27:03.274Z,5.80
2018-08-25T00:29:31.851Z,9.30
2018-08-25T00:32:00.461Z,7.23
2018-08-25T00:34:29.273Z,8.13
2018-08-25T00:36:58.115Z,5.43
2018-08-25T00:39:26.685Z,4.10
2018-08-25T00:41:55.535Z,674.10
2018-08-25T00:44:24.242Z,4.67
2018-08-25T00:46:53.028Z,3.77
2018-08-25T00:49:21.764Z,8.63
2018-08-25T00:51:50.350Z,6.03
2018-08-25T00:54:19.072Z,10.90
2018-08-25T00:56:47.796Z,8.37
2018-08-25T00:59:16.718Z,4.67
2018-08-25T01:01:45.302Z,4.00
2018-08-25T01:04:13.990Z,5.77
2018-08-25T01:06:43.779Z,5.27
2018-08-25T01:09:12.535Z,15.10
2018-08-25T01:11:41.321Z,3.33
2018-08-25T01:14:09.897Z,4.13
2018-08-25T01:16:38.458Z,3.10
2018-08-25T01:19:07.935Z,10.47
2018-08-25T01:21:36.579Z,10.93
2018-08-25T01:24:05.336Z,4.70
2018-08-25T01:26:33.943Z,6.47
2018-08-25T01:29:02.753Z,4.10
2018-08-25T01:31:31.805Z,16.23
2018-08-25T01:34:01.324Z,8.33
2018-08-25T01:36:29.999Z,8.20
2018-08-25T01:38:58.545Z,5.60
2018-08-25T01:41:27.106Z,6.87
2018-08-25T01:43:55.665Z,11.40
2018-08-25T01:46:24.223Z,7.70
2018-08-25T01:48:52.806Z,5.90
2018-08-25T01:51:21.560Z,7.13
2018-08-25T01:53:50.167Z,7.60
2018-08-25T01:56:18.796Z,6.27
2018-08-25T01:58:47.326Z,6.07
2018-08-25T02:01:15.912Z,8.30
2018-08-25T02:03:44.773Z,5.47
2018-08-25T02:06:13.350Z,2.70
2018-08-25T02:08:42.208Z,10.10
2018-08-25T02:11:10.816Z,10.67
2018-08-25T02:13:39.556Z,9.50
2018-08-25T02:16:08.290Z,5.73
2018-08-25T02:18:36.839Z,10.17
2018-08-25T02:21:05.568Z,2.83
2018-08-25T02:23:34.123Z,5.20
2018-08-25T02:26:02.675Z,8.73
2018-08-25T02:28:31.212Z,5.60
2018-08-25T02:30:59.755Z,9.40
2018-08-25T02:33:28.330Z,13.33
2018-08-25T02:35:56.980Z,5.93
2018-08-25T02:38:25.616Z,11.33
2018-08-25T02:40:54.208Z,2.87
2018-08-25T02:43:22.726Z,10.90
2018-08-25T02:45:51.352Z,6.90
2018-08-25T02:48:19.883Z,4.00
2018-08-25T02:50:48.580Z,9.10
2018-08-25T02:53:17.304Z,9.40
2018-08-25T02:55:46.117Z,26.90
2018-08-25T02:58:14.624Z,11.97
2018-08-25T03:00:43.281Z,4.53
2018-08-25T03:03:11.887Z,1.87
2018-08-25T03:05:40.470Z,11.33
2018-08-25T03:08:09.327Z,3.00
2018-08-25T03:10:38.010Z,4.40
2018-08-25T03:13:06.881Z,6.83
2018-08-25T03:15:35.531Z,10.70
2018-08-25T03:18:04.218Z,5.60
2018-08-25T03:20:32.719Z,5.13
2018-08-25T03:23:01.233Z,3.40
2018-08-25T03:25:29.836Z,5.43
2018-08-25T03:27:58.717Z,2.20
2018-08-25T03:30:27.281Z,5.67
2018-08-25T03:32:55.791Z,4.43
2018-08-25T03:35:24.685Z,3.90
2018-08-25T03:37:53.303Z,6.17
2018-08-25T03:40:21.815Z,7.20
2018-08-25T03:42:50.420Z,1.90
2018-08-25T03:45:18.959Z,3.50
2018-08-25T03:47:47.527Z,4.33
2018-08-25T03:50:16.068Z,9.60
2018-08-25T03:52:44.692Z,2.73
2018-08-25T03:55:13.333Z,1.83
2018-08-25T03:57:41.905Z,4.10
2018-08-25T04:00:10.623Z,4.27
2018-08-25T04:02:39.231Z,5.50
2018-08-25T04:05:07.813Z,7.80
2018-08-25T04:07:36.473Z,5.07
2018-08-25T04:10:05.178Z,3.30
2018-08-25T04:12:33.811Z,7.03
2018-08-25T04:15:02.628Z,4.50
2018-08-25T04:17:31.170Z,6.60
2018-08-25T04:20:02.827Z,7.20
2018-08-25T04:22:31.382Z,3.47
2018-08-25T04:24:59.925Z,8.83
2018-08-25T04:27:28.514Z,11.80
2018-08-25T04:29:57.052Z,6.63
2018-08-25T04:32:25.807Z,2.80
2018-08-25T04:34:54.566Z,2.60
2018-08-25T04:37:23.295Z,8.80
2018-08-25T04:39:52.012Z,11.73
2018-08-25T04:42:20.578Z,12.67
2018-08-25T04:44:49.105Z,3.23
2018-08-25T04:47:17.654Z,12.73
2018-08-25T04:49:46.245Z,5.40
2018-08-25T04:52:14.871Z,7.70
2018-08-25T04:54:43.571Z,6.10
2018-08-25T04:57:12.107Z,7.27
2018-08-25T04:59:40.801Z,2.40
2018-08-25T05:02:09.659Z,4.30
2018-08-25T05:04:38.277Z,3.97
2018-08-25T05:07:06.849Z,6.50
2018-08-25T05:09:35.527Z,4.40
2018-08-25T05:12:04.147Z,4.40
2018-08-25T05:14:33.016Z,4.33
2018-08-25T05:17:01.795Z,3.77
2018-08-25T05:19:30.374Z,2.67
2018-08-25T05:21:58.993Z,3.80
2018-08-25T05:24:27.768Z,3.60
2018-08-25T05:26:56.333Z,2.70
2018-08-25T05:29:24.964Z,10.10
2018-08-25T05:31:53.804Z,8.67
2018-08-25T05:34:22.450Z,9.97
2018-08-25T05:36:51.361Z,14.30
2018-08-25T05:39:19.882Z,9.60
2018-08-25T05:41:48.487Z,8.03
2018-08-25T05:44:17.087Z,7.03
2018-08-25T05:46:45.542Z,3.13
2018-08-25T05:49:14.122Z,10.20
2018-08-25T05:51:42.638Z,6.33
2018-08-25T05:54:11.222Z,9.40
2018-08-25T05:56:39.867Z,1.57
2018-08-25T05:59:08.690Z,6.10
2018-08-25T06:01:37.238Z,10.03
2018-08-25T06:04:06.027Z,2.33
2018-08-25T06:06:34.639Z,1.73
2018-08-25T06:09:04.161Z,1.50
2018-08-25T06:11:32.792Z,8.00
2018-08-25T06:14:01.422Z,1.87
2018-08-25T06:16:30.051Z,3.90
2018-08-25T06:18:58.579Z,3.67
2018-08-25T06:21:27.125Z,2.77
2018-08-25T06:23:55.979Z,6.73
2018-08-25T06:26:24.647Z,6.60
2018-08-25T06:28:53.374Z,1.97
2018-08-25T06:31:22.000Z,4.13
2018-08-25T06:33:50.613Z,1.80
2018-08-25T06:36:19.513Z,19.03
2018-08-25T06:38:48.089Z,3.37
2018-08-25T06:41:16.591Z,6.90
2018-08-25T06:43:45.160Z,5.30
2018-08-25T06:46:13.720Z,8.43
2018-08-25T06:48:42.515Z,4.83
2018-08-25T06:51:11.151Z,3.23
2018-08-25T06:53:39.812Z,5.90
2018-08-25T06:56:08.552Z,3.40
2018-08-25T06:58:37.226Z,2.80
2018-08-25T07:01:05.828Z,2.60
2018-08-25T07:03:34.453Z,4.43
2018-08-25T07:06:03.016Z,1.93
2018-08-25T07:08:31.573Z,2.20
2018-08-25T07:11:00.110Z,2.57
2018-08-25T07:13:28.644Z,5.50
2018-08-25T07:15:57.294Z,3.10
2018-08-25T07:18:25.892Z,2.43
2018-08-25T07:20:55.048Z,4.00
2018-08-25T07:23:23.987Z,3.73
2018-08-25T07:25:52.635Z,2.60
2018-08-25T07:28:21.406Z,2.33
2018-08-25T07:30:50.027Z,8.13
2018-08-25T07:33:18.627Z,3.33
2018-08-25T07:35:47.212Z,17.43
2018-08-25T07:38:15.857Z,5.10
2018-08-25T07:40:44.642Z,4.83
2018-08-25T07:43:13.240Z,3.70
2018-08-25T07:45:42.038Z,5.77
2018-08-25T07:48:10.754Z,48.27
2018-08-25T07:50:39.342Z,7.37
2018-08-25T07:53:07.911Z,6.90
2018-08-25T07:55:36.516Z,2.93
2018-08-25T07:58:05.233Z,2.40
2018-08-25T08:00:33.879Z,3.80
2018-08-25T08:03:02.509Z,7.30
2018-08-25T08:05:31.133Z,5.23
2018-08-25T08:07:59.902Z,1.97
2018-08-25T08:10:35.569Z,6.40
2018-08-25T08:13:04.157Z,3.73
2018-08-25T08:15:32.847Z,10.53
2018-08-25T08:18:01.664Z,2.33
2018-08-25T08:20:30.279Z,2.07
2018-08-25T08:22:59.248Z,19.03
2018-08-25T08:25:27.939Z,1.70
2018-08-25T08:28:03.334Z,3.47
2018-08-25T08:30:32.004Z,4.97
2018-08-25T08:33:00.765Z,2.63
2018-08-25T08:35:29.924Z,10.30
2018-08-25T08:37:58.949Z,3.17
2018-08-25T08:40:28.111Z,1.53
2018-08-25T08:42:57.220Z,2.77
2018-08-25T08:45:26.084Z,2.13
2018-08-25T08:47:54.806Z,3.03
2018-08-25T08:50:23.435Z,3.57
2018-08-25T08:52:52.070Z,3.77
2018-08-25T08:55:20.718Z,3.03
2018-08-25T08:57:49.413Z,3.20
2018-08-25T09:00:18.289Z,5.70
2018-08-25T09:02:47.080Z,3.37
2018-08-25T09:05:16.186Z,3.70
2018-08-25T09:07:44.893Z,5.40
2018-08-25T09:10:13.597Z,12.17
2018-08-25T09:12:42.156Z,9.37
2018-08-25T09:15:10.753Z,6.67
2018-08-25T09:17:39.359Z,7.00
2018-08-25T09:20:08.118Z,3.37
2018-08-25T09:22:36.977Z,16.17
2018-08-25T09:25:05.766Z,3.83
2018-08-25T09:27:34.529Z,11.30
2018-08-25T09:30:03.043Z,17.97
2018-08-25T09:32:32.096Z,100.33
2018-08-25T09:35:00.892Z,6.97
2018-08-25T09:37:29.494Z,4.27
2018-08-25T09:39:58.306Z,3.57
2018-08-25T09:42:26.946Z,4.80
2018-08-25T09:44:55.592Z,9.23
2018-08-25T09:47:24.481Z,12.53
2018-08-25T09:49:53.265Z,23.27
2018-08-25T09:52:22.124Z,42.53
2018-08-25T09:54:50.690Z,27.57
2018-08-25T09:57:19.494Z,375.73
2018-08-25T09:59:48.279Z,247.07
2018-08-25T10:02:16.968Z,289.37
2018-08-25T10:04:45.608Z,379.77
2018-08-25T10:07:14.489Z,492.33
2018-08-25T10:09:43.288Z,539.73
2018-08-25T10:12:12.010Z,594.77
2018-08-25T10:14:40.645Z,14.10
2018-08-25T10:17:09.443Z,12.50
2018-08-25T10:19:38.136Z,75.00
2018-08-25T10:22:07.021Z,127.60
2018-08-25T10:24:35.675Z,236.53
2018-08-25T10:27:04.589Z,380.73
2018-08-25T10:29:33.325Z,523.17
2018-08-25T10:32:02.099Z,544.47
2018-08-25T10:34:30.825Z,543.50
2018-08-25T10:36:59.634Z,515.97
2018-08-25T10:39:28.292Z,551.47
2018-08-25T10:41:57.088Z,547.30
2018-08-25T10:44:25.824Z,576.83
2018-08-25T10:46:54.450Z,589.40
2018-08-25T10:49:23.206Z,301.32
2018-08-25T10:51:52.433Z,570.83
2018-08-25T10:54:21.173Z,633.63
2018-08-25T10:56:49.883Z,604.40
2018-08-25T10:59:18.908Z,561.17
2018-08-25T11:01:47.698Z,550.40
2018-08-25T11:04:16.406Z,520.23
2018-08-25T11:06:45.040Z,488.20
2018-08-25T11:09:14.547Z,418.10
2018-08-25T11:11:43.270Z,412.70
2018-08-25T11:14:12.458Z,476.93
2018-08-25T11:16:41.192Z,437.87
2018-08-25T11:19:09.884Z,444.20
2018-08-25T11:21:39.107Z,436.60
2018-08-25T11:24:07.842Z,487.00
2018-08-25T11:26:36.600Z,506.03
2018-08-25T11:29:05.217Z,448.50
2018-08-25T11:31:34.026Z,418.30
2018-08-25T11:34:03.240Z,461.87
2018-08-25T11:36:31.886Z,524.80
2018-08-25T11:39:00.704Z,547.17
2018-08-25T11:41:29.525Z,554.03
2018-08-25T11:43:58.156Z,579.43
2018-08-25T11:46:26.828Z,551.23
2018-08-25T11:48:55.822Z,577.57
2018-08-25T11:51:24.485Z,585.97
2018-08-25T11:53:53.472Z,516.40
2018-08-25T11:56:22.209Z,521.57
2018-08-25T11:58:50.920Z,496.63
2018-08-25T12:01:19.554Z,535.83
2018-08-25T12:03:48.240Z,522.80
2018-08-25T12:06:17.112Z,501.57
2018-08-25T12:08:45.912Z,500.03
2018-08-25T12:11:14.630Z,552.73
2018-08-25T12:13:43.299Z,372.47
2018-08-25T12:16:12.060Z,417.43
2018-08-25T12:18:40.820Z,459.27
2018-08-25T12:21:09.612Z,477.80
2018-08-25T12:23:38.278Z,416.80
2018-08-25T12:26:07.057Z,365.50
2018-08-25T12:28:35.940Z,439.13
2018-08-25T12:31:04.711Z,324.13
2018-08-25T12:33:33.662Z,348.40
2018-08-25T12:36:02.595Z,329.70
2018-08-25T12:38:31.336Z,312.03
2018-08-25T12:41:00.022Z,238.80
2018-08-25T12:43:28.750Z,525.13
2018-08-25T12:45:57.404Z,307.50
2018-08-25T12:48:26.036Z,327.63
2018-08-25T12:50:54.950Z,370.37
2018-08-25T12:53:23.676Z,322.40
2018-08-25T12:55:52.397Z,189.03
2018-08-25T12:58:21.080Z,141.47
2018-08-25T13:00:49.875Z,486.13
2018-08-25T13:03:18.590Z,166.70
2018-08-25T13:05:47.411Z,241.27
2018-08-25T13:08:16.218Z,223.77
2018-08-25T13:10:45.263Z,241.70
2018-08-25T13:13:13.891Z,114.47
2018-08-25T13:15:42.490Z,162.13
2018-08-25T13:18:11.411Z,266.10
2018-08-25T13:20:40.173Z,312.17
2018-08-25T13:23:09.143Z,354.83
2018-08-25T13:25:37.723Z,209.87
2018-08-25T13:28:06.640Z,354.30
2018-08-25T13:30:35.611Z,272.10
2018-08-25T13:33:04.500Z,210.83
2018-08-25T13:35:33.228Z,195.90
2018-08-25T13:38:02.007Z,132.20
2018-08-25T13:40:30.732Z,166.20
2018-08-25T13:42:59.437Z,82.00
2018-08-25T13:45:28.178Z,183.77
2018-08-25T13:47:56.810Z,187.47
2018-08-25T13:50:25.415Z,194.40
2018-08-25T13:52:54.272Z,215.40
2018-08-25T13:55:22.969Z,86.90
2018-08-25T13:57:52.096Z,289.90
2018-08-25T14:00:20.743Z,283.67
2018-08-25T14:02:49.601Z,154.97
2018-08-25T14:05:18.283Z,232.23
2018-08-25T14:07:47.165Z,271.50
2018-08-25T14:10:16.198Z,255.77
2018-08-25T14:12:45.157Z,219.43
2018-08-25T14:15:14.211Z,298.17
2018-08-25T14:17:43.126Z,338.73
2018-08-25T14:20:11.713Z,398.97
2018-08-25T14:22:40.704Z,445.53
2018-08-25T14:25:09.352Z,487.27
2018-08-25T14:27:38.157Z,516.93
2018-08-25T14:30:07.781Z,545.93
2018-08-25T14:32:36.572Z,539.37
2018-08-25T14:35:05.886Z,462.87
2018-08-25T14:37:34.733Z,662.40
2018-08-25T14:40:03.409Z,527.80
2018-08-25T14:42:33.214Z,586.53
2018-08-25T14:45:02.064Z,632.00
2018-08-25T14:47:30.992Z,735.67
2018-08-25T14:49:59.716Z,814.67
2018-08-25T14:52:28.312Z,832.63
2018-08-25T14:54:56.963Z,863.53
2018-08-25T14:57:26.421Z,865.43
2018-08-25T14:59:55.021Z,893.37
2018-08-25T15:02:23.798Z,901.13
2018-08-25T15:04:52.510Z,924.57
2018-08-25T15:07:21.104Z,914.23
2018-08-25T15:09:50.142Z,915.63
2018-08-25T15:12:18.871Z,910.03
2018-08-25T15:14:47.810Z,900.90
2018-08-25T15:17:17.015Z,913.30
2018-08-25T15:19:45.907Z,909.13
2018-08-25T15:22:14.755Z,893.13
2018-08-25T15:24:43.830Z,886.73
2018-08-25T15:27:12.611Z,882.80
2018-08-25T15:29:41.264Z,888.10
2018-08-25T15:32:09.909Z,178.57
2018-08-25T15:34:38.560Z,700.90
2018-08-25T15:37:07.266Z,826.50
2018-08-25T15:39:35.875Z,859.70
2018-08-25T15:42:04.528Z,886.20
2018-08-25T15:44:33.341Z,849.13
2018-08-25T15:47:02.542Z,871.87
2018-08-25T15:49:31.256Z,873.60
2018-08-25T15:52:00.204Z,852.63
2018-08-25T15:54:29.071Z,834.50
2018-08-25T15:56:57.801Z,833.37
2018-08-25T15:59:26.430Z,700.03
2018-08-25T16:01:55.224Z,835.63
2018-08-25T16:04:23.961Z,711.10
2018-08-25T16:06:52.584Z,709.83
2018-08-25T16:09:21.400Z,757.63
2018-08-25T16:11:50.127Z,754.57
2018-08-25T16:14:18.855Z,870.67
2018-08-25T16:16:47.624Z,881.90
2018-08-25T16:19:16.310Z,863.97
2018-08-25T16:21:44.936Z,851.90
2018-08-25T16:24:13.667Z,872.17
2018-08-25T16:26:42.318Z,875.60
2018-08-25T16:29:11.132Z,665.20
2018-08-25T16:31:39.812Z,867.33
2018-08-25T16:34:08.531Z,811.13
2018-08-25T16:36:37.252Z,864.50
2018-08-25T16:39:07.452Z,243.57
2018-08-25T16:41:36.330Z,888.53
2018-08-25T16:44:04.987Z,493.87
2018-08-25T16:46:33.756Z,621.13
2018-08-25T16:49:02.614Z,662.83
2018-08-25T16:51:31.851Z,31.97
2018-08-25T16:54:00.632Z,577.40
2018-08-25T16:56:29.498Z,758.00
2018-08-25T16:58:58.186Z,869.90
2018-08-25T17:01:26.915Z,870.33
2018-08-25T17:03:56.011Z,893.40
2018-08-25T17:06:24.945Z,665.80
2018-08-25T17:08:53.684Z,617.10
2018-08-25T17:11:22.555Z,853.20
2018-08-25T17:13:51.583Z,837.40
2018-08-25T17:16:20.256Z,787.83
2018-08-25T17:18:49.250Z,879.70
2018-08-25T17:21:18.232Z,636.60
2018-08-25T17:23:46.895Z,856.87
2018-08-25T17:26:16.027Z,875.53
2018-08-25T17:28:44.650Z,643.07
2018-08-25T17:31:13.486Z,864.83
2018-08-25T17:33:42.109Z,843.37
2018-08-25T17:36:10.854Z,846.40
2018-08-25T17:38:39.581Z,862.10
2018-08-25T17:41:08.212Z,826.13
2018-08-25T17:43:37.016Z,841.43
2018-08-25T17:46:06.084Z,836.67
2018-08-25T17:48:34.973Z,838.13
2018-08-25T17:51:04.090Z,841.50
2018-08-25T17:53:32.797Z,849.40
2018-08-25T17:56:01.488Z,833.27
2018-08-25T17:58:30.221Z,804.83
2018-08-25T18:00:59.346Z,819.63
2018-08-25T18:03:28.083Z,831.17
2018-08-25T18:05:56.807Z,819.93
2018-08-25T18:08:25.672Z,831.57
2018-08-25T18:10:54.521Z,815.07
2018-08-25T18:13:23.315Z,818.07
2018-08-25T18:15:52.138Z,828.47
2018-08-25T18:18:21.216Z,825.63
2018-08-25T18:20:50.167Z,821.87
2018-08-25T18:23:25.353Z,817.97
2018-08-25T18:25:54.123Z,817.77
2018-08-25T18:28:23.101Z,829.63
2018-08-25T18:30:52.203Z,823.30
2018-08-25T18:33:21.655Z,817.10
2018-08-25T18:35:50.752Z,806.03
2018-08-25T18:38:19.529Z,803.13
2018-08-25T18:40:48.102Z,816.97
2018-08-25T18:43:17.181Z,821.90
2018-08-25T18:45:46.257Z,818.93
2018-08-25T18:48:15.460Z,814.63
2018-08-25T18:50:44.440Z,826.20
2018-08-25T18:53:13.463Z,836.10
2018-08-25T18:55:42.315Z,848.03
2018-08-25T18:58:10.958Z,848.53
2018-08-25T19:00:40.254Z,849.93
2018-08-25T19:03:09.096Z,834.77
2018-08-25T19:05:37.814Z,836.87
2018-08-25T19:08:06.978Z,833.40
2018-08-25T19:10:35.905Z,708.20
2018-08-25T19:13:05.197Z,666.03
2018-08-25T19:15:33.969Z,698.20
2018-08-25T19:18:03.036Z,720.33
2018-08-25T19:20:32.156Z,752.93
2018-08-25T19:23:01.591Z,709.97
2018-08-25T19:25:30.748Z,478.43
2018-08-25T19:27:59.867Z,639.47
2018-08-25T19:30:29.046Z,843.10
2018-08-25T19:32:58.343Z,859.37
2018-08-25T19:35:27.702Z,852.80
2018-08-25T19:37:57.049Z,837.73
2018-08-25T19:40:26.239Z,846.43
2018-08-25T19:42:55.357Z,844.93
2018-08-25T19:45:24.542Z,491.63
2018-08-25T19:47:53.841Z,489.23
2018-08-25T19:50:23.276Z,840.47
2018-08-25T19:52:52.474Z,820.50
2018-08-25T19:55:21.837Z,841.37
2018-08-25T19:57:51.122Z,840.03
2018-08-25T20:00:20.388Z,678.77
2018-08-25T20:02:49.607Z,513.30
2018-08-25T20:05:19.006Z,842.13
2018-08-25T20:07:47.729Z,824.17
2018-08-25T20:10:16.604Z,821.77
2018-08-25T20:12:45.399Z,853.07
2018-08-25T20:15:14.263Z,839.00
2018-08-25T20:17:43.311Z,832.73
2018-08-25T20:20:12.161Z,860.67
2018-08-25T20:22:41.157Z,822.13
2018-08-25T20:25:10.071Z,827.80
2018-08-25T20:27:38.753Z,812.53
2018-08-25T20:30:08.581Z,797.83
2018-08-25T20:32:37.861Z,797.63
2018-08-25T20:35:06.533Z,822.33
2018-08-25T20:37:35.296Z,831.33
2018-08-25T20:40:04.174Z,820.33
2018-08-25T20:42:33.208Z,839.70
2018-08-25T20:45:02.202Z,819.57
2018-08-25T20:47:30.936Z,789.67
2018-08-25T20:49:59.557Z,843.40
2018-08-25T20:52:28.415Z,830.60
2018-08-25T20:54:57.402Z,806.57
2018-08-25T20:57:26.850Z,1074.33
2018-08-25T20:59:55.929Z,822.73
2018-08-25T21:02:25.068Z,438.53
2018-08-25T21:04:53.871Z,194.43
2018-08-25T21:07:22.704Z,229.00
2018-08-25T21:09:51.512Z,191.37
2018-08-25T21:12:20.226Z,425.40
2018-08-25T21:14:49.030Z,68.90
2018-08-25T21:17:17.712Z,152.93
2018-08-25T21:19:46.566Z,61.20
2018-08-25T21:22:15.532Z,661.37
2018-08-25T21:24:44.118Z,841.50
2018-08-25T21:27:13.019Z,801.30
2018-08-25T21:29:41.716Z,746.07
2018-08-25T21:32:10.686Z,222.53
2018-08-25T21:34:39.318Z,172.17
2018-08-25T21:37:08.389Z,574.37
2018-08-25T21:39:37.550Z,768.70
2018-08-25T21:42:06.586Z,813.93
2018-08-25T21:44:35.559Z,527.10
2018-08-25T21:47:04.471Z,865.73
2018-08-25T21:49:33.504Z,831.97
2018-08-25T21:52:02.184Z,838.53
2018-08-25T21:54:30.851Z,829.77
2018-08-25T21:56:59.684Z,829.50
2018-08-25T21:59:28.605Z,836.27
2018-08-25T22:01:57.446Z,779.60
2018-08-25T22:04:27.581Z,825.20
2018-08-25T22:06:57.079Z,810.70
2018-08-25T22:09:26.121Z,827.33
2018-08-25T22:11:55.121Z,793.53
2018-08-25T22:14:24.282Z,810.57
2018-08-25T22:16:53.184Z,796.17
2018-08-25T22:19:21.980Z,789.23
2018-08-25T22:21:50.618Z,795.23
2018-08-25T22:24:19.252Z,802.57
2018-08-25T22:26:48.139Z,769.97
2018-08-25T22:29:23.718Z,766.40
2018-08-25T22:31:52.412Z,781.83
2018-08-25T22:34:21.199Z,773.25
2018-08-25T22:36:49.921Z,799.83
2018-08-25T22:39:18.741Z,805.60
2018-08-25T22:41:47.488Z,789.07
2018-08-25T22:44:16.385Z,803.97
2018-08-25T22:46:45.235Z,781.57
2018-08-25T22:49:14.013Z,773.13
2018-08-25T22:51:42.886Z,773.63
2018-08-25T22:54:11.571Z,778.50
2018-08-25T22:56:40.301Z,749.23
2018-08-25T22:59:09.018Z,754.90
2018-08-25T23:01:37.607Z,762.70
2018-08-25T23:04:06.653Z,772.40
2018-08-25T23:06:35.307Z,762.20
2018-08-25T23:09:05.774Z,782.77
2018-08-25T23:11:34.565Z,753.20
2018-08-25T23:14:03.217Z,761.30
2018-08-25T23:16:31.822Z,773.37
2018-08-25T23:19:00.518Z,159.07
2018-08-25T23:21:29.239Z,843.93
2018-08-25T23:23:57.885Z,805.33
2018-08-25T23:26:26.600Z,794.37
2018-08-25T23:28:55.288Z,826.27
2018-08-25T23:31:23.948Z,772.47
2018-08-25T23:33:52.725Z,837.93
2018-08-25T23:36:21.368Z,456.97
2018-08-25T23:38:50.235Z,812.77
2018-08-25T23:41:18.854Z,807.60
2018-08-25T23:43:47.404Z,633.30
2018-08-25T23:46:15.983Z,786.93
2018-08-25T23:48:44.767Z,747.03
2018-08-25T23:51:13.435Z,744.03
2018-08-25T23:53:42.195Z,790.27
2018-08-25T23:56:10.904Z,800.77
2018-08-25T23:58:39.435Z,811.07
